createdAt,value
2018-12-25T00:02:37.525Z,88.71
2018-12-25T00:05:27.660Z,89.14
2018-12-25T00:08:17.778Z,89.35
2018-12-25T00:11:07.731Z,89.49
2018-12-25T00:13:57.496Z,89.09
2018-12-25T00:16:47.284Z,88.87
2018-12-25T00:19:29.568Z,88.32
2018-12-25T00:22:19.353Z,87.78
2018-12-25T00:25:09.256Z,87.68
2018-12-25T00:27:59.274Z,88.35
2018-12-25T00:30:48.884Z,86.31
2018-12-25T00:33:38.834Z,87.43
2018-12-25T00:36:28.750Z,87.10
2018-12-25T00:39:18.506Z,87.66
2018-12-25T00:42:27.309Z,87.26
2018-12-25T00:45:18.373Z,88.00
2018-12-25T00:48:08.663Z,89.52
2018-12-25T00:50:58.661Z,89.21
2018-12-25T00:54:07.551Z,90.22
2018-12-25T00:56:57.488Z,89.89
2018-12-25T00:59:47.522Z,90.03
2018-12-25T01:02:37.367Z,91.13
2018-12-25T01:08:36.464Z,91.01
2018-12-25T01:11:26.793Z,91.16
2018-12-25T01:14:16.694Z,91.37
2018-12-25T01:17:06.493Z,91.84
2018-12-25T01:19:56.259Z,92.26
2018-12-25T01:22:46.388Z,92.14
2018-12-25T01:25:36.269Z,92.04
2018-12-25T01:28:26.460Z,92.35
2018-12-25T01:31:16.582Z,92.52
2018-12-25T01:34:06.332Z,93.12
2018-12-25T01:36:56.168Z,93.19
2018-12-25T01:39:46.141Z,93.09
2018-12-25T01:45:31.526Z,92.18
2018-12-25T01:48:21.691Z,92.43
2018-12-25T01:51:11.863Z,91.81
2018-12-25T01:54:01.690Z,91.67
2018-12-25T01:56:51.837Z,91.99
2018-12-25T01:59:41.657Z,91.43
2018-12-25T02:02:31.809Z,91.43
2018-12-25T02:05:22.064Z,90.70
2018-12-25T02:08:31.084Z,90.44
2018-12-25T02:11:02.140Z,90.01
2018-12-25T02:13:33.087Z,90.28
2018-12-25T02:16:03.922Z,90.42
2018-12-25T02:18:47.521Z,90.71
2018-12-25T02:21:37.290Z,91.17
2018-12-25T02:24:27.126Z,91.06
2018-12-25T02:27:17.256Z,91.35
2018-12-25T02:30:26.402Z,91.87
2018-12-25T02:33:16.175Z,91.55
2018-12-25T02:36:06.037Z,91.77
2018-12-25T02:38:56.225Z,92.01
2018-12-25T02:41:46.108Z,91.25
2018-12-25T02:44:35.917Z,91.47
2018-12-25T02:47:26.870Z,91.03
2018-12-25T02:50:16.793Z,91.12
2018-12-25T02:53:06.621Z,91.12
2018-12-25T02:55:56.472Z,91.51
2018-12-25T02:59:05.559Z,91.72
2018-12-25T03:05:04.064Z,92.59
2018-12-25T03:07:53.800Z,93.07
2018-12-25T03:10:43.638Z,92.68
2018-12-25T03:13:33.403Z,92.71
2018-12-25T03:16:23.146Z,92.83
2018-12-25T03:19:05.152Z,92.72
2018-12-25T03:21:54.887Z,92.89
2018-12-25T03:24:44.640Z,93.02
2018-12-25T03:27:34.651Z,92.96
2018-12-25T03:30:24.396Z,92.85
2018-12-25T03:33:14.542Z,92.70
2018-12-25T03:36:04.428Z,92.78
2018-12-25T03:38:54.173Z,92.79
2018-12-25T03:41:43.914Z,92.86
2018-12-25T03:44:33.918Z,92.69
2018-12-25T03:47:24.104Z,93.18
2018-12-25T03:50:13.869Z,93.59
2018-12-25T03:53:03.696Z,93.48
2018-12-25T03:55:53.705Z,93.32
2018-12-25T03:58:43.527Z,93.38
2018-12-25T04:04:28.505Z,93.76
2018-12-25T04:07:18.252Z,93.88
2018-12-25T04:10:08.388Z,93.78
2018-12-25T04:12:58.753Z,93.84
2018-12-25T04:15:48.501Z,93.47
2018-12-25T04:18:31.289Z,93.52
2018-12-25T04:21:21.039Z,93.86
2018-12-25T04:24:10.792Z,93.59
2018-12-25T04:27:00.844Z,93.48
2018-12-25T04:29:51.109Z,93.42
2018-12-25T04:32:41.818Z,93.27
2018-12-25T04:35:31.904Z,93.19
2018-12-25T04:38:22.294Z,93.12
2018-12-25T04:41:12.112Z,93.17
2018-12-25T04:44:01.880Z,93.23
2018-12-25T04:46:51.627Z,93.26
2018-12-25T04:49:41.655Z,93.24
2018-12-25T04:52:31.401Z,93.11
2018-12-25T04:55:21.161Z,93.05
2018-12-25T04:58:10.907Z,93.14
2018-12-25T05:01:01.045Z,92.41
2018-12-25T05:03:50.871Z,92.51
2018-12-25T05:06:41.324Z,92.45
2018-12-25T05:09:31.218Z,92.43
2018-12-25T05:15:15.880Z,92.77
2018-12-25T05:17:58.335Z,92.50
2018-12-25T05:23:44.166Z,92.19
2018-12-25T05:26:34.589Z,92.21
2018-12-25T05:29:24.340Z,92.70
2018-12-25T05:32:14.334Z,92.74
2018-12-25T05:35:04.156Z,92.54
2018-12-25T05:37:53.919Z,92.64
2018-12-25T05:43:53.034Z,92.27
2018-12-25T05:46:42.823Z,92.55
2018-12-25T05:49:33.027Z,92.81
2018-12-25T05:52:22.870Z,92.85
2018-12-25T05:55:12.606Z,92.40
2018-12-25T05:58:02.343Z,92.19
2018-12-25T06:00:52.513Z,92.40
2018-12-25T06:03:42.273Z,92.64
2018-12-25T06:06:32.206Z,92.95
2018-12-25T06:09:21.946Z,93.40
2018-12-25T06:12:11.725Z,93.66
2018-12-25T06:15:01.473Z,93.01
2018-12-25T06:17:44.183Z,93.06
2018-12-25T06:20:55.237Z,93.34
2018-12-25T06:23:44.446Z,93.17
2018-12-25T06:26:34.195Z,93.06
2018-12-25T06:32:19.236Z,93.03
2018-12-25T06:35:09.020Z,93.09
2018-12-25T06:37:59.097Z,93.19
2018-12-25T06:40:48.866Z,92.96
2018-12-25T06:43:38.906Z,93.07
2018-12-25T06:46:28.756Z,93.03
2018-12-25T06:49:18.564Z,92.86
2018-12-25T06:55:18.626Z,92.73
2018-12-25T06:58:08.446Z,93.01
2018-12-25T07:00:58.873Z,93.44
2018-12-25T07:03:48.955Z,93.12
2018-12-25T07:06:39.034Z,92.72
2018-12-25T07:09:29.098Z,92.83
2018-12-25T07:12:18.842Z,92.73
2018-12-25T07:15:09.319Z,92.80
2018-12-25T07:17:52.045Z,92.89
2018-12-25T07:20:42.135Z,92.75
2018-12-25T07:23:31.919Z,93.05
2018-12-25T07:26:22.478Z,93.01
2018-12-25T07:29:12.650Z,92.52
2018-12-25T07:32:02.721Z,92.63
2018-12-25T07:34:52.738Z,92.60
2018-12-25T07:37:42.555Z,92.85
2018-12-25T07:40:32.297Z,92.68
2018-12-25T07:43:22.389Z,92.68
2018-12-25T07:49:21.582Z,92.15
2018-12-25T07:52:11.420Z,92.31
2018-12-25T07:55:01.623Z,92.57
2018-12-25T07:57:51.864Z,92.50
2018-12-25T08:00:41.701Z,92.65
2018-12-25T08:03:31.852Z,92.73
2018-12-25T08:06:21.845Z,92.57
2018-12-25T08:09:11.616Z,92.42
2018-12-25T08:12:02.015Z,91.92
2018-12-25T08:14:53.105Z,91.76
2018-12-25T08:17:42.989Z,91.84
2018-12-25T08:20:33.149Z,92.45
2018-12-25T08:23:22.902Z,91.52
2018-12-25T08:26:13.271Z,91.52
2018-12-25T08:29:03.039Z,91.74
2018-12-25T08:31:53.269Z,91.66
2018-12-25T08:34:43.320Z,91.70
2018-12-25T08:37:33.401Z,92.23
2018-12-25T08:40:23.527Z,91.34
2018-12-25T08:43:13.979Z,91.18
2018-12-25T08:46:04.214Z,91.56
2018-12-25T08:48:53.950Z,91.26
2018-12-25T08:51:44.334Z,90.88
2018-12-25T08:57:43.086Z,90.54
2018-12-25T09:00:33.199Z,90.95
2018-12-25T09:03:23.274Z,90.11
2018-12-25T09:06:13.502Z,90.13
2018-12-25T09:12:13.641Z,90.08
2018-12-25T09:15:03.716Z,89.79
2018-12-25T09:17:46.612Z,88.98
2018-12-25T09:20:36.354Z,89.66
2018-12-25T09:23:26.128Z,89.80
2018-12-25T09:26:16.171Z,89.66
2018-12-25T09:29:06.246Z,89.36
2018-12-25T09:31:56.076Z,89.69
2018-12-25T09:34:45.883Z,89.63
2018-12-25T09:37:36.084Z,89.60
2018-12-25T09:40:26.129Z,90.37
2018-12-25T09:43:16.237Z,89.01
2018-12-25T09:46:06.605Z,89.25
2018-12-25T09:48:56.328Z,89.14
2018-12-25T09:51:46.069Z,88.88
2018-12-25T09:54:36.106Z,89.31
2018-12-25T09:57:26.137Z,89.06
2018-12-25T10:00:15.865Z,89.22
2018-12-25T10:03:05.680Z,89.74
2018-12-25T10:05:55.419Z,88.03
2018-12-25T10:08:45.175Z,88.14
2018-12-25T10:11:34.917Z,87.25
2018-12-25T10:14:24.703Z,86.57
2018-12-25T10:17:14.504Z,86.10
2018-12-25T10:19:57.197Z,86.45
2018-12-25T10:22:47.267Z,87.58
2018-12-25T10:25:37.617Z,88.44
2018-12-25T10:28:27.886Z,88.05
2018-12-25T10:31:17.848Z,89.03
2018-12-25T10:34:07.576Z,87.32
2018-12-25T10:36:57.307Z,87.87
2018-12-25T10:39:47.046Z,87.35
2018-12-25T10:42:37.059Z,86.90
2018-12-25T10:45:26.869Z,87.23
2018-12-25T10:48:16.994Z,86.08
2018-12-25T10:51:06.726Z,85.85
2018-12-25T10:53:56.550Z,84.56
2018-12-25T10:56:46.346Z,85.65
2018-12-25T10:59:36.092Z,85.34
2018-12-25T11:02:26.108Z,85.57
2018-12-25T11:05:15.850Z,84.54
2018-12-25T11:08:05.579Z,86.17
2018-12-25T11:10:55.316Z,85.28
2018-12-25T11:13:45.122Z,84.30
2018-12-25T11:16:34.937Z,85.57
2018-12-25T11:19:17.711Z,85.46
2018-12-25T11:22:07.478Z,83.42
2018-12-25T11:24:57.219Z,83.31
2018-12-25T11:27:47.259Z,83.77
2018-12-25T11:30:36.994Z,84.29
2018-12-25T11:33:26.730Z,84.08
2018-12-25T11:36:16.553Z,83.12
2018-12-25T11:39:46.703Z,82.82
2018-12-25T11:42:36.540Z,83.03
2018-12-25T11:45:26.597Z,82.89
2018-12-25T11:51:25.163Z,83.66
2018-12-25T11:54:14.885Z,84.42
2018-12-25T11:57:04.769Z,83.37
2018-12-25T11:59:54.493Z,83.60
2018-12-25T12:02:44.310Z,84.59
2018-12-25T12:05:34.128Z,84.20
2018-12-25T12:08:23.858Z,85.00
2018-12-25T12:11:13.863Z,83.66
2018-12-25T12:14:03.671Z,84.82
2018-12-25T12:17:12.197Z,84.00
2018-12-25T12:19:55.107Z,83.27
2018-12-25T12:22:44.852Z,84.83
2018-12-25T12:25:34.863Z,84.82
2018-12-25T12:28:24.835Z,83.83
2018-12-25T12:31:14.645Z,83.43
2018-12-25T12:34:04.456Z,82.99
2018-12-25T12:36:54.257Z,83.49
2018-12-25T12:39:43.990Z,83.19
2018-12-25T12:42:34.090Z,82.58
2018-12-25T12:45:24.485Z,83.60
2018-12-25T12:48:14.574Z,83.44
2018-12-25T12:54:13.283Z,82.64
2018-12-25T12:57:03.050Z,84.42
2018-12-25T12:59:52.771Z,82.78
2018-12-25T13:02:42.510Z,84.32
2018-12-25T13:05:32.227Z,83.84
2018-12-25T13:08:22.283Z,82.68
2018-12-25T13:11:12.003Z,83.00
2018-12-25T13:14:01.740Z,83.22
2018-12-25T13:16:51.651Z,84.37
2018-12-25T13:19:34.418Z,84.89
2018-12-25T13:22:24.440Z,83.65
2018-12-25T13:25:14.406Z,84.35
2018-12-25T13:28:04.139Z,83.98
2018-12-25T13:30:53.864Z,84.23
2018-12-25T13:33:43.682Z,84.30
2018-12-25T13:36:33.407Z,83.61
2018-12-25T13:39:23.410Z,84.25
2018-12-25T13:42:13.216Z,84.60
2018-12-25T13:45:02.967Z,84.74
2018-12-25T13:47:53.111Z,84.63
2018-12-25T13:50:42.996Z,83.89
2018-12-25T13:53:32.736Z,83.59
2018-12-25T13:56:22.804Z,83.94
2018-12-25T13:59:12.542Z,82.26
2018-12-25T14:02:02.272Z,83.10
2018-12-25T14:07:47.529Z,82.40
2018-12-25T14:10:37.337Z,83.18
2018-12-25T14:13:27.427Z,83.29
2018-12-25T14:16:17.162Z,82.33
2018-12-25T14:18:59.666Z,83.06
2018-12-25T14:21:49.392Z,82.08
2018-12-25T14:24:39.215Z,82.01
2018-12-25T14:27:28.936Z,81.85
2018-12-25T14:30:19.030Z,82.48
2018-12-25T14:33:10.964Z,82.82
2018-12-25T14:36:00.791Z,82.73
2018-12-25T14:38:50.518Z,82.14
2018-12-25T14:41:40.254Z,82.65
2018-12-25T14:44:30.331Z,81.93
2018-12-25T14:47:20.430Z,81.47
2018-12-25T14:50:10.268Z,82.15
2018-12-25T14:52:59.992Z,82.14
2018-12-25T14:55:49.805Z,82.31
2018-12-25T14:58:39.529Z,82.04
2018-12-25T15:01:29.273Z,82.76
2018-12-25T15:04:19.000Z,82.64
2018-12-25T15:07:09.156Z,83.11
2018-12-25T15:09:58.871Z,83.17
2018-12-25T15:12:48.953Z,82.82
2018-12-25T15:15:38.715Z,82.81
2018-12-25T15:18:20.815Z,83.11
2018-12-25T15:21:10.552Z,84.39
2018-12-25T15:24:00.301Z,84.09
2018-12-25T15:26:50.045Z,84.21
2018-12-25T15:29:39.767Z,84.32
2018-12-25T15:32:29.523Z,84.71
2018-12-25T15:35:19.867Z,85.75
2018-12-25T15:38:09.591Z,85.16
2018-12-25T15:40:59.697Z,84.82
2018-12-25T15:43:49.436Z,85.54
2018-12-25T15:46:39.510Z,85.44
2018-12-25T15:49:29.593Z,85.81
2018-12-25T15:52:19.981Z,85.27
2018-12-25T15:55:10.203Z,85.27
2018-12-25T15:58:00.310Z,86.03
2018-12-25T16:00:50.447Z,86.13
2018-12-25T16:03:40.209Z,86.13
2018-12-25T16:06:30.056Z,86.78
2018-12-25T16:09:19.793Z,86.63
2018-12-25T16:12:09.559Z,87.24
2018-12-25T16:14:59.323Z,87.33
2018-12-25T16:17:49.707Z,87.01
2018-12-25T16:20:39.530Z,87.42
2018-12-25T16:23:29.599Z,88.00
2018-12-25T16:26:38.127Z,88.15
2018-12-25T16:29:29.509Z,88.13
2018-12-25T16:32:19.763Z,88.22
2018-12-25T16:35:09.589Z,88.98
2018-12-25T16:37:59.332Z,88.98
2018-12-25T16:40:49.071Z,89.14
2018-12-25T16:43:39.081Z,89.42
2018-12-25T16:46:28.807Z,89.47
2018-12-25T16:49:18.639Z,89.16
2018-12-25T16:55:03.774Z,89.41
2018-12-25T16:57:53.524Z,90.05
2018-12-25T17:00:43.339Z,90.62
2018-12-25T17:03:33.084Z,90.98
2018-12-25T17:06:23.144Z,91.73
2018-12-25T17:09:12.902Z,92.08
2018-12-25T17:12:02.623Z,92.07
2018-12-25T17:14:52.375Z,91.41
2018-12-25T17:18:01.395Z,91.36
2018-12-25T17:20:43.519Z,91.11
2018-12-25T17:23:33.290Z,91.24
2018-12-25T17:26:23.537Z,91.36
2018-12-25T17:29:13.280Z,92.04
2018-12-25T17:32:03.026Z,92.11
2018-12-25T17:35:11.880Z,92.36
2018-12-25T17:38:01.958Z,93.63
2018-12-25T17:40:52.083Z,94.01
2018-12-25T17:43:42.189Z,93.98
2018-12-25T17:46:31.922Z,93.52
2018-12-25T17:49:21.671Z,93.22
2018-12-25T17:52:11.765Z,93.08
2018-12-25T17:55:01.863Z,92.88
2018-12-25T17:57:51.609Z,93.62
2018-12-25T18:00:41.363Z,93.70
2018-12-25T18:03:31.416Z,93.40
2018-12-25T18:06:21.446Z,92.85
2018-12-25T18:09:11.183Z,93.04
2018-12-25T18:12:00.927Z,93.18
2018-12-25T18:14:50.717Z,93.13
2018-12-25T18:17:40.452Z,93.07
2018-12-25T18:20:23.303Z,92.95
2018-12-25T18:23:13.568Z,92.88
2018-12-25T18:26:03.631Z,93.11
2018-12-25T18:28:53.718Z,93.94
2018-12-25T18:31:43.720Z,94.18
2018-12-25T18:34:33.472Z,93.65
2018-12-25T18:37:23.206Z,93.75
2018-12-25T18:40:12.970Z,93.89
2018-12-25T18:43:02.705Z,93.84
2018-12-25T18:45:52.469Z,93.83
2018-12-25T18:48:42.550Z,93.60
2018-12-25T18:51:32.299Z,93.62
2018-12-25T18:54:27.759Z,93.65
2018-12-25T18:57:13.922Z,93.64
2018-12-25T19:00:03.667Z,93.53
2018-12-25T19:02:53.435Z,93.61
2018-12-25T19:05:43.481Z,94.11
2018-12-25T19:08:33.216Z,94.05
2018-12-25T19:11:23.143Z,94.08
2018-12-25T19:14:13.239Z,94.46
2018-12-25T19:17:03.459Z,94.52
2018-12-25T19:19:45.914Z,94.54
2018-12-25T19:22:54.942Z,94.52
2018-12-25T19:25:44.684Z,94.42
2018-12-25T19:28:34.426Z,94.16
2018-12-25T19:31:24.485Z,94.27
2018-12-25T19:34:14.232Z,94.51
2018-12-25T19:37:04.307Z,94.57
2018-12-25T19:39:54.114Z,94.46
2018-12-25T19:42:43.942Z,94.63
2018-12-25T19:45:34.306Z,94.50
2018-12-25T19:48:24.047Z,94.47
2018-12-25T19:51:14.515Z,94.92
2018-12-25T19:54:23.191Z,94.83
2018-12-25T19:57:12.938Z,94.79
2018-12-25T20:00:03.090Z,94.79
2018-12-25T20:03:30.957Z,94.59
2018-12-25T20:06:55.614Z,94.85
2018-12-25T20:10:23.454Z,94.63
2018-12-25T20:13:51.560Z,94.62
2018-12-25T20:17:19.668Z,94.72
2018-12-25T20:20:20.915Z,94.73
2018-12-25T20:23:48.765Z,94.62
2018-12-25T20:27:16.615Z,94.48
2018-12-25T20:30:44.479Z,94.58
2018-12-25T20:34:12.325Z,94.69
2018-12-25T20:37:40.182Z,95.01
2018-12-25T20:41:08.017Z,94.65
2018-12-25T20:44:35.872Z,94.64
2018-12-25T20:48:03.719Z,94.68
2018-12-25T20:51:31.555Z,94.47
2018-12-25T20:55:01.475Z,94.29
2018-12-25T20:58:29.011Z,94.28
2018-12-25T21:01:57.085Z,94.60
2018-12-25T21:05:24.937Z,94.28
2018-12-25T21:08:52.784Z,93.89
2018-12-25T21:12:20.620Z,94.06
2018-12-25T21:15:48.460Z,94.03
2018-12-25T21:18:50.336Z,94.18
2018-12-25T21:22:26.219Z,94.41
2018-12-25T21:25:54.096Z,94.85
2018-12-25T21:28:43.924Z,94.85
2018-12-25T21:31:33.824Z,94.08
2018-12-25T21:34:23.729Z,93.93
2018-12-25T21:40:44.001Z,93.90
2018-12-25T21:43:53.237Z,94.12
2018-12-25T21:46:43.349Z,94.11
2018-12-25T21:49:33.360Z,94.11
2018-12-25T21:52:23.719Z,94.45
2018-12-25T21:55:18.531Z,94.66
2018-12-25T21:58:05.157Z,94.82
2018-12-25T22:00:55.155Z,94.71
2018-12-25T22:03:45.591Z,94.39
2018-12-25T22:06:35.417Z,94.31
2018-12-25T22:09:25.241Z,94.14
2018-12-25T22:15:23.724Z,93.88
2018-12-25T22:18:13.456Z,94.37
2018-12-25T22:23:58.849Z,94.56
2018-12-25T22:26:48.584Z,94.04
2018-12-25T22:29:38.313Z,93.70
2018-12-25T22:32:28.066Z,93.84
2018-12-25T22:35:18.168Z,94.35
2018-12-25T22:38:07.904Z,94.45
2018-12-25T22:40:57.672Z,94.39
2018-12-25T22:43:47.405Z,94.44
2018-12-25T22:46:37.231Z,94.55
2018-12-25T22:49:27.358Z,94.21
2018-12-25T22:52:17.107Z,94.33
2018-12-25T22:55:26.331Z,94.25
2018-12-25T22:58:16.356Z,94.17
2018-12-25T23:01:06.342Z,94.50
2018-12-25T23:03:56.638Z,94.40
2018-12-25T23:06:46.398Z,94.21
2018-12-25T23:09:36.132Z,94.30
2018-12-25T23:12:25.874Z,94.21
2018-12-25T23:15:15.629Z,94.05
2018-12-25T23:18:05.460Z,94.11
2018-12-25T23:20:55.192Z,94.07
2018-12-25T23:23:44.946Z,94.20
2018-12-25T23:29:43.608Z,94.59
2018-12-25T23:32:33.428Z,93.78
2018-12-25T23:35:23.155Z,93.86
2018-12-25T23:38:12.908Z,94.12
2018-12-25T23:41:02.636Z,94.17
2018-12-25T23:43:52.641Z,94.00
2018-12-25T23:46:42.458Z,94.13
2018-12-25T23:49:32.217Z,93.55
2018-12-25T23:52:21.951Z,93.41
2018-12-25T23:55:12.289Z,94.04
2018-12-25T23:58:02.300Z,94.35
